createdAt,value
2022-10-16T00:01:10.046Z,15.30
2022-10-16T00:03:38.071Z,15.20
2022-10-16T00:06:07.318Z,15.20
2022-10-16T00:08:36.191Z,15.20
2022-10-16T00:11:06.671Z,15.20
2022-10-16T00:13:36.727Z,15.20
2022-10-16T00:16:07.088Z,15.20
2022-10-16T00:18:35.426Z,15.20
2022-10-16T00:21:08.580Z,15.20
2022-10-16T00:23:36.986Z,15.20
2022-10-16T00:26:09.027Z,15.20
2022-10-16T00:28:37.645Z,15.20
2022-10-16T00:31:09.039Z,15.30
2022-10-16T00:33:38.092Z,15.30
2022-10-16T00:36:07.749Z,15.30
2022-10-16T00:38:36.440Z,15.30
2022-10-16T00:41:04.461Z,15.20
2022-10-16T00:43:39.112Z,15.20
2022-10-16T00:46:17.020Z,15.20
2022-10-16T00:48:50.453Z,15.20
2022-10-16T00:51:21.447Z,15.10
2022-10-16T00:53:50.210Z,15.10
2022-10-16T00:56:18.955Z,15.10
2022-10-16T00:58:47.265Z,15.10
2022-10-16T01:01:16.700Z,15.10
2022-10-16T01:03:44.715Z,15.20
2022-10-16T01:06:27.256Z,15.20
2022-10-16T01:09:17.627Z,15.10
2022-10-16T01:11:57.441Z,15.10
2022-10-16T01:14:31.382Z,15.10
2022-10-16T01:17:06.217Z,15.10
2022-10-16T01:19:52.085Z,15.10
2022-10-16T01:22:21.595Z,15.10
2022-10-16T01:24:51.852Z,15.10
2022-10-16T01:27:24.560Z,15.10
2022-10-16T01:29:56.178Z,15.10
2022-10-16T01:32:33.472Z,15.10
2022-10-16T01:35:06.017Z,15.10
2022-10-16T01:37:40.650Z,15.10
2022-10-16T01:40:13.141Z,15.10
2022-10-16T01:42:47.041Z,15.10
2022-10-16T01:45:19.477Z,15.10
2022-10-16T01:47:49.019Z,15.10
2022-10-16T01:50:19.284Z,15.10
2022-10-16T01:52:51.666Z,15.10
2022-10-16T01:55:24.341Z,15.10
2022-10-16T01:57:55.718Z,15.10
2022-10-16T02:00:25.693Z,15.10
2022-10-16T02:02:56.333Z,15.10
2022-10-16T02:05:28.525Z,15.10
2022-10-16T02:07:58.492Z,15.00
2022-10-16T02:10:32.355Z,15.00
2022-10-16T02:13:08.417Z,15.00
2022-10-16T02:15:36.532Z,15.00
2022-10-16T02:18:05.181Z,15.00
2022-10-16T02:20:38.896Z,15.00
2022-10-16T02:23:07.988Z,15.00
2022-10-16T02:25:41.535Z,15.00
2022-10-16T02:28:15.601Z,15.00
2022-10-16T02:30:47.866Z,15.00
2022-10-16T02:33:17.322Z,15.00
2022-10-16T02:35:48.443Z,15.00
2022-10-16T02:38:17.175Z,15.00
2022-10-16T02:40:45.446Z,15.00
2022-10-16T02:43:15.135Z,15.10
2022-10-16T02:45:43.268Z,15.10
2022-10-16T02:48:11.342Z,15.10
2022-10-16T02:50:39.318Z,15.10
2022-10-16T02:53:07.371Z,15.10
2022-10-16T02:55:35.379Z,15.10
2022-10-16T02:58:03.392Z,15.10
2022-10-16T03:00:32.773Z,15.10
2022-10-16T03:03:00.798Z,15.10
2022-10-16T03:05:28.840Z,15.10
2022-10-16T03:07:56.888Z,15.10
2022-10-16T03:10:24.948Z,15.10
2022-10-16T03:12:52.957Z,15.10
2022-10-16T03:15:20.996Z,15.10
2022-10-16T03:17:50.349Z,15.10
2022-10-16T03:20:18.349Z,15.10
2022-10-16T03:22:46.363Z,15.00
2022-10-16T03:25:14.480Z,15.10
2022-10-16T03:27:42.487Z,15.00
2022-10-16T03:30:11.847Z,15.00
2022-10-16T03:32:39.819Z,14.90
2022-10-16T03:35:10.027Z,14.90
2022-10-16T03:37:38.209Z,14.90
2022-10-16T03:40:07.257Z,14.90
2022-10-16T03:42:35.263Z,14.90
2022-10-16T03:45:03.529Z,14.90
2022-10-16T03:47:33.930Z,14.90
2022-10-16T03:50:02.192Z,14.80
2022-10-16T03:52:31.610Z,14.80
2022-10-16T03:54:59.759Z,14.80
2022-10-16T03:57:28.077Z,14.70
2022-10-16T03:59:56.343Z,14.70
2022-10-16T04:02:24.465Z,14.70
2022-10-16T04:04:52.591Z,14.70
2022-10-16T04:07:20.623Z,14.70
2022-10-16T04:09:50.004Z,14.70
2022-10-16T04:12:17.991Z,14.60
2022-10-16T04:14:45.999Z,14.60
2022-10-16T04:17:13.999Z,14.60
2022-10-16T04:19:42.015Z,14.60
2022-10-16T04:22:10.017Z,14.60
2022-10-16T04:24:38.073Z,14.60
2022-10-16T04:27:07.444Z,14.50
2022-10-16T04:29:35.454Z,14.50
2022-10-16T04:32:03.432Z,14.50
2022-10-16T04:34:31.472Z,14.50
2022-10-16T04:36:59.476Z,14.50
2022-10-16T04:39:27.518Z,14.50
2022-10-16T04:41:55.506Z,14.50
2022-10-16T04:44:24.912Z,14.50
2022-10-16T04:46:52.967Z,14.50
2022-10-16T04:49:21.022Z,14.50
2022-10-16T04:51:49.050Z,14.40
2022-10-16T04:54:17.038Z,14.40
2022-10-16T04:56:48.288Z,14.40
2022-10-16T04:59:16.681Z,14.30
2022-10-16T05:01:46.414Z,14.30
2022-10-16T05:04:15.979Z,14.30
2022-10-16T05:06:44.738Z,14.30
2022-10-16T05:09:13.089Z,14.20
2022-10-16T05:11:41.139Z,14.20
2022-10-16T05:14:09.162Z,14.20
2022-10-16T05:16:37.160Z,14.10
2022-10-16T05:21:54.631Z,14.20
2022-10-16T05:24:22.622Z,14.20
2022-10-16T05:26:50.655Z,14.20
2022-10-16T05:29:18.705Z,14.20
2022-10-16T05:31:46.770Z,14.20
2022-10-16T05:34:16.270Z,14.20
2022-10-16T05:36:46.240Z,14.20
2022-10-16T05:39:16.148Z,14.20
2022-10-16T05:41:44.327Z,14.20
2022-10-16T05:44:12.857Z,14.20
2022-10-16T05:46:40.854Z,14.20
2022-10-16T05:49:08.844Z,14.10
2022-10-16T05:51:38.227Z,14.10
2022-10-16T05:54:06.245Z,14.10
2022-10-16T05:56:34.276Z,14.10
2022-10-16T05:59:02.283Z,14.10
2022-10-16T06:01:30.335Z,14.10
2022-10-16T06:03:58.834Z,14.10
2022-10-16T06:06:30.520Z,14.10
2022-10-16T06:09:00.786Z,14.10
2022-10-16T06:11:30.056Z,14.00
2022-10-16T06:14:01.092Z,13.90
2022-10-16T06:16:29.261Z,13.90
2022-10-16T06:18:58.294Z,13.90
2022-10-16T06:21:27.613Z,13.90
2022-10-16T06:23:56.590Z,13.90
2022-10-16T06:26:28.331Z,13.90
2022-10-16T06:28:56.568Z,14.00
2022-10-16T06:31:28.420Z,13.90
2022-10-16T06:33:57.207Z,14.00
2022-10-16T06:36:26.303Z,14.00
2022-10-16T06:38:54.914Z,14.00
2022-10-16T06:41:23.811Z,14.00
2022-10-16T06:43:53.558Z,14.10
2022-10-16T06:46:23.578Z,14.20
2022-10-16T06:48:51.819Z,14.20
2022-10-16T06:51:21.147Z,14.20
2022-10-16T06:54:05.891Z,14.20
2022-10-16T06:56:35.418Z,14.20
2022-10-16T06:59:04.917Z,14.20
2022-10-16T07:01:33.370Z,14.30
2022-10-16T07:04:02.924Z,14.30
2022-10-16T07:06:34.200Z,14.30
2022-10-16T07:09:04.521Z,14.30
2022-10-16T07:11:32.778Z,14.40
2022-10-16T07:14:01.386Z,14.40
2022-10-16T07:16:32.984Z,14.40
2022-10-16T07:19:03.134Z,14.40
2022-10-16T07:21:36.466Z,14.50
2022-10-16T07:24:06.154Z,14.50
2022-10-16T07:26:37.234Z,14.50
2022-10-16T07:29:05.791Z,14.40
2022-10-16T07:31:35.487Z,14.50
2022-10-16T07:34:03.609Z,14.50
2022-10-16T07:36:31.770Z,14.60
2022-10-16T07:39:00.439Z,14.60
2022-10-16T07:41:29.373Z,14.60
2022-10-16T07:44:00.983Z,14.70
2022-10-16T07:46:29.862Z,14.70
2022-10-16T07:48:59.238Z,14.80
2022-10-16T07:51:28.142Z,14.80
2022-10-16T07:53:56.789Z,14.90
2022-10-16T07:56:25.520Z,14.90
2022-10-16T07:58:53.841Z,15.00
2022-10-16T08:01:22.497Z,14.90
2022-10-16T08:03:52.226Z,15.00
2022-10-16T08:06:26.755Z,15.00
2022-10-16T08:08:56.669Z,15.00
2022-10-16T08:11:25.425Z,15.00
2022-10-16T08:13:53.541Z,15.10
2022-10-16T08:16:21.631Z,15.30
2022-10-16T08:18:49.759Z,15.40
2022-10-16T08:21:21.268Z,15.40
2022-10-16T08:23:54.852Z,15.50
2022-10-16T08:26:26.815Z,15.40
2022-10-16T08:28:55.073Z,15.50
2022-10-16T08:31:24.068Z,15.70
2022-10-16T08:33:53.189Z,15.90
2022-10-16T08:36:21.603Z,15.80
2022-10-16T08:38:54.411Z,15.90
2022-10-16T08:41:44.820Z,15.90
2022-10-16T08:44:41.839Z,15.90
2022-10-16T08:47:17.077Z,16.00
2022-10-16T08:49:57.137Z,16.00
2022-10-16T08:52:34.964Z,16.00
2022-10-16T08:55:05.771Z,16.10
2022-10-16T08:57:33.786Z,16.20
2022-10-16T09:00:07.989Z,16.30
2022-10-16T09:02:39.567Z,16.30
2022-10-16T09:05:25.099Z,16.50
2022-10-16T09:08:05.540Z,17.00
2022-10-16T09:10:47.080Z,17.30
2022-10-16T09:13:21.944Z,17.60
2022-10-16T09:15:55.531Z,17.70
2022-10-16T09:18:31.640Z,17.60
2022-10-16T09:21:09.151Z,17.40
2022-10-16T09:23:38.742Z,17.20
2022-10-16T09:26:13.688Z,17.00
2022-10-16T09:28:41.839Z,16.80
2022-10-16T09:31:21.123Z,16.80
2022-10-16T09:33:54.104Z,16.70
2022-10-16T09:36:23.353Z,16.70
2022-10-16T09:38:51.499Z,16.80
2022-10-16T09:41:23.307Z,17.10
2022-10-16T09:43:56.323Z,17.30
2022-10-16T09:46:28.863Z,17.40
2022-10-16T09:48:59.827Z,17.60
2022-10-16T09:51:30.407Z,17.80
2022-10-16T09:54:01.220Z,17.80
2022-10-16T09:56:33.553Z,17.90
2022-10-16T09:59:03.782Z,18.00
2022-10-16T10:01:39.485Z,17.90
2022-10-16T10:04:09.430Z,17.90
2022-10-16T10:06:42.801Z,17.90
2022-10-16T10:09:20.836Z,17.90
2022-10-16T10:11:57.835Z,18.00
2022-10-16T10:14:29.662Z,18.10
2022-10-16T10:17:16.945Z,18.10
2022-10-16T10:19:50.745Z,18.20
2022-10-16T10:22:31.935Z,18.10
2022-10-16T10:25:14.367Z,17.90
2022-10-16T10:27:53.209Z,17.70
2022-10-16T10:30:27.891Z,17.80
2022-10-16T10:33:12.447Z,17.80
2022-10-16T10:35:47.172Z,17.80
2022-10-16T10:38:27.954Z,18.00
2022-10-16T10:41:04.929Z,18.10
2022-10-16T10:43:48.027Z,18.00
2022-10-16T10:46:25.445Z,18.00
2022-10-16T10:49:09.149Z,18.00
2022-10-16T10:51:49.709Z,18.00
2022-10-16T10:54:26.867Z,18.00
2022-10-16T10:57:01.978Z,18.00
2022-10-16T10:59:45.423Z,18.20
2022-10-16T11:02:20.771Z,18.30
2022-10-16T11:05:08.195Z,18.40
2022-10-16T11:07:40.571Z,18.30
2022-10-16T11:10:16.077Z,18.30
2022-10-16T11:12:48.028Z,18.30
2022-10-16T11:15:21.767Z,18.20
2022-10-16T11:17:54.625Z,18.20
2022-10-16T11:20:26.617Z,18.20
2022-10-16T11:23:00.171Z,18.30
2022-10-16T11:25:30.570Z,18.40
2022-10-16T11:31:51.614Z,18.70
2022-10-16T11:34:27.277Z,18.80
2022-10-16T11:37:00.034Z,18.70
2022-10-16T11:39:30.722Z,18.70
2022-10-16T11:42:05.220Z,18.80
2022-10-16T11:44:46.283Z,18.80
2022-10-16T11:47:54.070Z,18.80
2022-10-16T11:50:25.271Z,18.70
2022-10-16T11:53:00.115Z,18.70
2022-10-16T11:55:33.933Z,18.60
2022-10-16T11:58:08.157Z,18.40
2022-10-16T12:00:42.194Z,18.30
2022-10-16T12:03:19.827Z,18.30
2022-10-16T12:05:59.820Z,18.20
2022-10-16T12:08:28.765Z,18.10
2022-10-16T12:11:09.163Z,18.10
2022-10-16T12:13:39.291Z,18.20
2022-10-16T12:16:24.074Z,18.10
2022-10-16T12:19:12.153Z,18.10
2022-10-16T12:21:40.292Z,18.00
2022-10-16T12:24:08.750Z,18.00
2022-10-16T12:26:42.784Z,18.20
2022-10-16T12:29:24.253Z,18.30
2022-10-16T12:31:58.280Z,18.40
2022-10-16T12:34:32.046Z,18.60
2022-10-16T12:37:12.189Z,18.70
2022-10-16T12:39:40.520Z,18.70
2022-10-16T12:42:23.059Z,18.70
2022-10-16T12:44:51.476Z,18.70
2022-10-16T12:47:24.941Z,18.70
2022-10-16T12:49:56.708Z,18.70
2022-10-16T12:52:30.306Z,18.60
2022-10-16T12:55:01.804Z,18.60
2022-10-16T12:57:43.112Z,18.70
2022-10-16T13:00:23.065Z,18.60
2022-10-16T13:03:26.985Z,18.70
2022-10-16T13:06:08.403Z,18.70
2022-10-16T13:08:52.057Z,18.50
2022-10-16T13:11:26.890Z,18.60
2022-10-16T13:14:12.059Z,18.50
2022-10-16T13:16:50.898Z,18.50
2022-10-16T13:19:29.201Z,18.50
2022-10-16T13:22:05.131Z,18.50
2022-10-16T13:24:50.959Z,18.70
2022-10-16T13:27:29.576Z,18.90
2022-10-16T13:30:04.223Z,19.00
2022-10-16T13:32:33.287Z,19.00
2022-10-16T13:35:02.060Z,18.90
2022-10-16T13:37:31.526Z,18.90
2022-10-16T13:40:19.909Z,18.80
2022-10-16T13:42:48.001Z,18.80
2022-10-16T13:45:24.226Z,18.60
2022-10-16T13:47:52.234Z,18.60
2022-10-16T13:50:20.935Z,18.50
2022-10-16T13:52:50.546Z,18.50
2022-10-16T13:55:20.384Z,18.50
2022-10-16T13:57:48.387Z,18.30
2022-10-16T14:00:25.518Z,18.40
2022-10-16T14:02:57.626Z,18.40
2022-10-16T14:05:25.797Z,18.30
2022-10-16T14:07:56.689Z,18.30
2022-10-16T14:10:27.559Z,18.20
2022-10-16T14:13:00.501Z,18.20
2022-10-16T14:15:28.879Z,18.20
2022-10-16T14:17:57.363Z,18.20
2022-10-16T14:20:30.498Z,18.20
2022-10-16T14:23:07.258Z,18.20
2022-10-16T14:25:35.351Z,18.10
2022-10-16T14:28:05.645Z,18.10
2022-10-16T14:30:35.655Z,18.20
2022-10-16T14:33:06.020Z,18.20
2022-10-16T14:35:36.492Z,18.20
2022-10-16T14:38:07.775Z,18.20
2022-10-16T14:40:38.826Z,18.20
2022-10-16T14:43:07.414Z,18.20
2022-10-16T14:45:37.459Z,18.20
2022-10-16T14:48:19.532Z,18.30
2022-10-16T14:50:48.220Z,18.30
2022-10-16T14:53:17.637Z,18.20
2022-10-16T14:55:46.325Z,18.20
2022-10-16T14:58:17.235Z,18.10
2022-10-16T15:00:45.328Z,18.10
2022-10-16T15:03:13.460Z,18.00
2022-10-16T15:05:41.609Z,18.00
2022-10-16T15:08:09.635Z,18.00
2022-10-16T15:10:42.865Z,17.90
2022-10-16T15:13:14.478Z,17.90
2022-10-16T15:15:45.208Z,17.90
2022-10-16T15:18:15.503Z,17.80
2022-10-16T15:20:44.309Z,17.80
2022-10-16T15:23:16.132Z,17.70
2022-10-16T15:25:47.986Z,17.70
2022-10-16T15:28:17.616Z,17.60
2022-10-16T15:30:47.072Z,17.60
2022-10-16T15:33:17.678Z,17.50
2022-10-16T15:35:48.913Z,17.50
2022-10-16T15:38:18.280Z,17.40
2022-10-16T15:40:48.574Z,17.40
2022-10-16T15:43:16.666Z,17.40
2022-10-16T15:45:44.960Z,17.30
2022-10-16T15:48:14.078Z,17.30
2022-10-16T15:53:12.350Z,17.20
2022-10-16T15:55:40.558Z,17.10
2022-10-16T15:58:10.008Z,17.00
2022-10-16T16:00:38.634Z,17.00
2022-10-16T16:03:06.796Z,17.00
2022-10-16T16:05:36.341Z,17.00
2022-10-16T16:08:04.370Z,17.00
2022-10-16T16:10:32.358Z,16.90
2022-10-16T16:13:00.345Z,16.90
2022-10-16T16:15:29.719Z,16.90
2022-10-16T16:17:57.772Z,16.90
2022-10-16T16:20:25.802Z,16.80
2022-10-16T16:22:53.919Z,16.80
2022-10-16T16:25:21.950Z,16.70
2022-10-16T16:27:49.993Z,16.60
2022-10-16T16:30:20.522Z,16.60
2022-10-16T16:32:52.142Z,16.50
2022-10-16T16:35:20.172Z,16.30
2022-10-16T16:37:49.611Z,16.30
2022-10-16T16:40:17.784Z,16.30
2022-10-16T16:42:45.856Z,16.20
2022-10-16T16:45:14.014Z,16.20
2022-10-16T16:47:42.040Z,16.20
2022-10-16T16:50:11.570Z,16.10
2022-10-16T16:52:39.556Z,16.10
2022-10-16T16:55:08.041Z,16.10
2022-10-16T16:57:36.027Z,16.00
2022-10-16T17:00:05.293Z,16.00
2022-10-16T17:02:33.888Z,15.90
2022-10-16T17:05:02.118Z,15.90
2022-10-16T17:07:35.554Z,15.80
2022-10-16T17:10:03.910Z,15.80
2022-10-16T17:12:32.112Z,15.70
2022-10-16T17:15:00.220Z,15.70
2022-10-16T17:17:28.492Z,15.70
2022-10-16T17:19:56.798Z,15.70
2022-10-16T17:22:25.218Z,15.80
2022-10-16T17:24:54.919Z,15.80
2022-10-16T17:27:23.707Z,15.90
2022-10-16T17:29:53.211Z,16.00
2022-10-16T17:32:21.904Z,16.00
2022-10-16T17:34:49.916Z,16.00
2022-10-16T17:37:18.907Z,16.10
2022-10-16T17:39:46.989Z,16.00
2022-10-16T17:42:16.353Z,16.00
2022-10-16T17:44:44.384Z,15.90
2022-10-16T17:47:12.472Z,15.90
2022-10-16T17:49:40.904Z,15.90
2022-10-16T17:52:08.915Z,15.80
2022-10-16T17:54:36.968Z,15.80
2022-10-16T17:57:05.051Z,15.80
2022-10-16T17:59:34.441Z,15.80
2022-10-16T18:02:02.595Z,15.70
2022-10-16T18:04:30.751Z,15.70
2022-10-16T18:07:00.489Z,15.70
2022-10-16T18:09:28.828Z,15.70
2022-10-16T18:12:00.627Z,15.70
2022-10-16T18:14:30.240Z,15.60
2022-10-16T18:17:00.289Z,15.60
2022-10-16T18:19:29.024Z,15.60
2022-10-16T18:21:57.505Z,15.60
2022-10-16T18:24:26.253Z,15.60
2022-10-16T18:26:56.883Z,15.60
2022-10-16T18:29:25.812Z,15.60
2022-10-16T18:31:53.989Z,15.60
2022-10-16T18:34:24.026Z,15.60
2022-10-16T18:36:54.329Z,15.50
2022-10-16T18:39:24.733Z,15.50
2022-10-16T18:41:59.502Z,15.50
2022-10-16T18:44:27.978Z,15.50
2022-10-16T18:46:59.084Z,15.60
2022-10-16T18:49:29.605Z,15.60
2022-10-16T18:51:57.718Z,15.60
2022-10-16T18:54:26.635Z,15.70
2022-10-16T18:56:54.832Z,15.70
2022-10-16T18:59:23.162Z,15.70
2022-10-16T19:01:52.546Z,15.80
2022-10-16T19:04:22.356Z,15.90
2022-10-16T19:06:54.062Z,15.80
2022-10-16T19:09:24.227Z,15.80
2022-10-16T19:14:25.775Z,15.90
2022-10-16T19:16:53.833Z,15.90
2022-10-16T19:19:23.767Z,15.90
2022-10-16T19:22:01.104Z,15.90
2022-10-16T19:24:29.098Z,15.80
2022-10-16T19:26:57.904Z,15.80
2022-10-16T19:29:25.927Z,15.70
2022-10-16T19:31:53.927Z,15.70
2022-10-16T19:34:22.033Z,15.70
2022-10-16T19:36:50.469Z,15.60
2022-10-16T19:41:52.927Z,15.50
2022-10-16T19:44:21.060Z,15.50
2022-10-16T19:46:49.555Z,15.40
2022-10-16T19:49:21.670Z,15.30
2022-10-16T19:51:51.728Z,15.30
2022-10-16T19:54:21.523Z,15.20
2022-10-16T19:56:49.533Z,15.20
2022-10-16T19:59:20.147Z,15.10
2022-10-16T20:01:48.727Z,15.10
2022-10-16T20:04:16.873Z,15.10
2022-10-16T20:06:45.300Z,15.00
2022-10-16T20:09:13.418Z,15.00
2022-10-16T20:11:42.944Z,14.90
2022-10-16T20:14:10.974Z,14.90
2022-10-16T20:16:40.285Z,14.80
2022-10-16T20:19:08.301Z,14.80
2022-10-16T20:21:36.561Z,14.80
2022-10-16T20:24:06.422Z,14.80
2022-10-16T20:26:34.899Z,14.80
2022-10-16T20:29:05.397Z,14.80
2022-10-16T20:31:34.995Z,14.80
2022-10-16T20:34:05.170Z,14.80
2022-10-16T20:36:34.041Z,14.70
2022-10-16T20:39:02.934Z,14.70
2022-10-16T20:41:30.974Z,14.70
2022-10-16T20:43:59.768Z,14.70
2022-10-16T20:46:30.031Z,14.70
2022-10-16T20:49:06.128Z,14.60
2022-10-16T20:51:39.824Z,14.60
2022-10-16T20:54:08.470Z,14.50
2022-10-16T20:56:37.830Z,14.50
2022-10-16T20:59:06.120Z,14.50
2022-10-16T21:01:36.748Z,14.50
2022-10-16T21:04:06.885Z,14.50
2022-10-16T21:06:36.519Z,14.50
2022-10-16T21:09:06.642Z,14.40
2022-10-16T21:11:36.669Z,14.40
2022-10-16T21:14:07.126Z,14.40
2022-10-16T21:16:36.850Z,14.30
2022-10-16T21:19:04.995Z,14.20
2022-10-16T21:21:35.559Z,14.20
2022-10-16T21:24:03.698Z,14.20
2022-10-16T21:26:32.442Z,14.10
2022-10-16T21:29:01.933Z,14.10
2022-10-16T21:31:30.813Z,14.10
2022-10-16T21:34:00.576Z,14.00
2022-10-16T21:36:31.215Z,14.10
2022-10-16T21:39:02.934Z,14.00
2022-10-16T21:41:30.986Z,14.00
2022-10-16T21:43:59.674Z,14.00
2022-10-16T21:46:31.709Z,14.00
2022-10-16T21:49:02.799Z,14.10
2022-10-16T21:51:33.829Z,14.00
2022-10-16T21:54:02.475Z,14.00
2022-10-16T21:56:30.842Z,14.00
2022-10-16T21:58:59.023Z,14.00
2022-10-16T22:01:28.675Z,14.00
2022-10-16T22:03:57.082Z,14.00
2022-10-16T22:06:28.050Z,13.90
2022-10-16T22:08:59.533Z,13.90
2022-10-16T22:11:29.742Z,13.80
2022-10-16T22:13:57.906Z,13.80
2022-10-16T22:16:27.663Z,13.80
2022-10-16T22:18:57.951Z,13.80
2022-10-16T22:21:28.205Z,13.70
2022-10-16T22:23:56.298Z,13.70
2022-10-16T22:26:24.329Z,13.60
2022-10-16T22:28:52.713Z,13.60
2022-10-16T22:31:21.675Z,13.60
2022-10-16T22:33:49.743Z,13.60
2022-10-16T22:36:17.718Z,13.60
2022-10-16T22:38:47.168Z,13.60
2022-10-16T22:41:16.006Z,13.50
2022-10-16T22:43:45.842Z,13.50
2022-10-16T22:46:16.267Z,13.50
2022-10-16T22:48:44.720Z,13.50
2022-10-16T22:51:16.747Z,13.50
2022-10-16T22:53:47.787Z,13.50
2022-10-16T22:56:17.580Z,13.40
2022-10-16T22:58:45.935Z,13.40
2022-10-16T23:01:16.605Z,13.40
2022-10-16T23:03:44.838Z,13.40
2022-10-16T23:06:12.843Z,13.30
2022-10-16T23:08:41.242Z,13.30
2022-10-16T23:11:12.535Z,13.30
2022-10-16T23:13:45.113Z,13.30
2022-10-16T23:16:14.879Z,13.30
2022-10-16T23:18:43.704Z,13.20
2022-10-16T23:21:14.309Z,13.20
2022-10-16T23:23:43.024Z,13.30
2022-10-16T23:26:13.676Z,13.20
2022-10-16T23:28:42.274Z,13.20
2022-10-16T23:31:11.567Z,13.30
2022-10-16T23:33:40.514Z,13.20
2022-10-16T23:36:10.002Z,13.20
2022-10-16T23:38:38.146Z,13.20
2022-10-16T23:41:07.114Z,13.20
2022-10-16T23:43:37.144Z,13.10
2022-10-16T23:46:05.529Z,13.10
2022-10-16T23:48:33.542Z,13.20
2022-10-16T23:51:01.810Z,13.10
2022-10-16T23:53:29.794Z,13.10
2022-10-16T23:55:57.871Z,13.10
2022-10-16T23:58:25.947Z,13.10
